Elat'Ma, Russia
Current Conditions -  °F | °C
As of 3:30 PM on Friday 24 Oct 2014 (Local Time) from UWGG Reporting Station
Scattered Clouds Scattered Clouds  
Wind Chill:   Ceiling: Unl
Heat Index: 19°   Visibility: 6mi
Dew Point: 10°   Wind: 13mph
Humidity: 68%   Direction: 330°NNW
Pressure: 30.45"   Gusts: NA
Location:  54.95°N, 41.77°E
Report Text: UWGG 241230Z 33006MPS 9999 FEW016 SCT100 M07/M12 Q1031 NOSIG36420245 RMK QFE766
Loading
Personal Weather Stations






























Interactive Weather Map
Tropical Storm Tracking
New forecast layout! Learn more

10-Day Weather Forecast

Advertisements
Track Severe Weather on mobile